createdAt,value
2019-03-26T05:01:02.978Z,6.78
2019-03-26T05:02:03.152Z,6.78
2019-03-26T05:03:03.322Z,6.75
2019-03-26T05:04:03.490Z,6.69
2019-03-26T05:05:03.662Z,6.66
2019-03-26T05:06:03.830Z,6.64
2019-03-26T05:07:04.006Z,6.67
2019-03-26T05:08:04.170Z,6.66
2019-03-26T05:09:04.342Z,6.72
2019-03-26T05:10:04.512Z,6.72
2019-03-26T05:11:04.684Z,6.70
2019-03-26T05:12:04.874Z,6.77
2019-03-26T05:13:05.026Z,6.74
2019-03-26T05:14:05.198Z,6.67
2019-03-26T05:15:05.368Z,6.69
2019-03-26T05:16:05.537Z,6.67
2019-03-26T05:17:05.708Z,6.64
2019-03-26T05:18:05.877Z,6.66
2019-03-26T05:19:06.046Z,6.59
2019-03-26T05:20:06.222Z,6.60
2019-03-26T05:21:06.386Z,6.56
2019-03-26T05:22:06.557Z,6.59
2019-03-26T05:23:06.727Z,6.59
2019-03-26T05:24:06.962Z,6.66
2019-03-26T05:25:07.069Z,6.59
2019-03-26T05:26:07.238Z,6.59
2019-03-26T05:27:07.409Z,6.62
2019-03-26T05:28:07.582Z,6.67
2019-03-26T05:29:07.749Z,6.59
2019-03-26T05:30:07.920Z,6.45
2019-03-26T05:31:08.091Z,6.56
2019-03-26T05:32:08.259Z,6.48
2019-03-26T05:33:08.430Z,6.44
2019-03-26T05:34:08.597Z,6.44
2019-03-26T05:35:08.769Z,6.42
2019-03-26T05:36:08.939Z,6.39
2019-03-26T05:37:09.113Z,6.41
2019-03-26T05:38:09.279Z,6.39
2019-03-26T05:39:09.450Z,6.38
2019-03-26T05:40:09.621Z,6.44
2019-03-26T05:41:10.588Z,6.35
2019-03-26T05:42:09.959Z,6.31
2019-03-26T05:43:10.131Z,6.30
2019-03-26T05:44:10.305Z,6.31
2019-03-26T05:45:10.472Z,6.39
2019-03-26T05:46:10.642Z,6.44
2019-03-26T05:47:10.811Z,6.39
2019-03-26T05:48:10.981Z,6.33
2019-03-26T05:49:11.151Z,6.39
2019-03-26T05:50:11.321Z,6.38
2019-03-26T05:51:11.490Z,6.45
2019-03-26T05:52:11.664Z,6.49
2019-03-26T05:53:11.829Z,6.48
2019-03-26T05:54:12.003Z,6.54
2019-03-26T05:55:12.167Z,6.48
2019-03-26T05:56:12.340Z,6.56
2019-03-26T05:57:12.542Z,6.45
2019-03-26T05:58:12.680Z,6.45
2019-03-26T05:59:12.849Z,6.44
2019-03-26T06:00:13.025Z,6.44
2019-03-26T06:01:13.187Z,6.49
2019-03-26T06:02:16.473Z,6.48
2019-03-26T06:03:13.528Z,6.52
2019-03-26T06:04:13.779Z,6.48
2019-03-26T06:05:13.868Z,6.60
2019-03-26T06:06:14.037Z,6.52
2019-03-26T06:07:14.220Z,6.54
2019-03-26T06:08:14.378Z,6.51
2019-03-26T06:09:14.549Z,6.60
2019-03-26T06:10:14.723Z,6.48
2019-03-26T06:11:14.895Z,6.57
2019-03-26T06:12:15.064Z,6.62
2019-03-26T06:13:15.233Z,6.62
2019-03-26T06:14:15.398Z,6.45
2019-03-26T06:15:15.569Z,6.57
2019-03-26T06:16:15.739Z,6.62
2019-03-26T06:17:15.911Z,6.62
2019-03-26T06:18:16.081Z,6.64
2019-03-26T06:19:16.247Z,6.77
2019-03-26T06:20:16.418Z,6.79
2019-03-26T06:21:16.589Z,6.70
2019-03-26T06:22:16.757Z,6.78
2019-03-26T06:23:16.931Z,6.82
2019-03-26T06:24:17.102Z,6.95
2019-03-26T06:25:17.274Z,7.03
2019-03-26T06:26:17.443Z,7.05
2019-03-26T06:27:17.612Z,7.05
2019-03-26T06:28:17.785Z,7.06
2019-03-26T06:29:17.956Z,7.06
2019-03-26T06:30:18.125Z,7.06
2019-03-26T06:31:18.292Z,7.06
2019-03-26T06:32:18.462Z,7.20
2019-03-26T06:33:18.634Z,7.11
2019-03-26T06:34:18.806Z,7.28
2019-03-26T06:35:18.976Z,7.23
2019-03-26T06:36:19.146Z,7.23
2019-03-26T06:37:19.315Z,7.24
2019-03-26T06:38:19.489Z,7.20
2019-03-26T06:39:19.658Z,7.10
2019-03-26T06:40:19.833Z,7.11
2019-03-26T06:41:20.000Z,7.11
2019-03-26T06:42:20.172Z,7.13
2019-03-26T06:43:20.340Z,7.02
2019-03-26T06:44:20.512Z,6.92
2019-03-26T06:45:20.682Z,6.92
2019-03-26T06:46:20.853Z,7.03
2019-03-26T06:47:21.025Z,6.97
2019-03-26T06:48:21.196Z,6.93
2019-03-26T06:49:21.363Z,7.02
2019-03-26T06:50:21.540Z,6.95
2019-03-26T06:51:21.704Z,6.96
2019-03-26T06:52:21.874Z,7.00
2019-03-26T06:53:22.042Z,6.95
2019-03-26T06:54:22.210Z,7.05
2019-03-26T06:55:22.382Z,6.92
2019-03-26T06:56:22.551Z,6.89
2019-03-26T06:57:34.956Z,6.89
2019-03-26T06:58:22.894Z,6.82
2019-03-26T06:59:23.061Z,6.79
2019-03-26T07:00:23.230Z,6.81
2019-03-26T07:01:23.399Z,6.82
2019-03-26T07:02:23.571Z,6.81
2019-03-26T07:03:23.741Z,6.78
2019-03-26T07:04:23.910Z,6.84
2019-03-26T07:05:24.077Z,6.81
2019-03-26T07:06:24.248Z,6.81
2019-03-26T07:07:31.542Z,6.82
2019-03-26T07:08:24.584Z,6.81
2019-03-26T07:09:24.751Z,6.97
2019-03-26T07:10:24.920Z,6.99
2019-03-26T07:11:25.090Z,6.93
2019-03-26T07:12:25.264Z,6.95
2019-03-26T07:13:25.430Z,6.85
2019-03-26T07:14:25.600Z,6.81
2019-03-26T07:15:25.771Z,6.82
2019-03-26T07:16:25.941Z,6.85
2019-03-26T07:17:27.213Z,6.88
2019-03-26T07:18:26.279Z,6.89
2019-03-26T07:19:26.448Z,6.87
2019-03-26T07:20:26.618Z,6.78
2019-03-26T07:21:26.788Z,6.75
2019-03-26T07:22:26.956Z,6.72
2019-03-26T07:23:27.132Z,6.67
2019-03-26T07:24:27.293Z,6.69
2019-03-26T07:25:27.468Z,6.57
2019-03-26T07:26:27.635Z,6.54
2019-03-26T07:27:27.803Z,6.57
2019-03-26T07:28:27.973Z,6.63
2019-03-26T07:29:28.143Z,6.64
2019-03-26T07:30:28.309Z,6.57
2019-03-26T07:31:28.482Z,6.52
2019-03-26T07:32:28.652Z,6.54
2019-03-26T07:33:28.819Z,6.46
2019-03-26T07:34:28.991Z,6.52
2019-03-26T07:35:29.158Z,6.52
2019-03-26T07:36:29.330Z,6.56
2019-03-26T07:37:29.498Z,6.52
2019-03-26T07:38:29.668Z,6.52
2019-03-26T07:39:29.836Z,6.59
2019-03-26T07:40:30.008Z,6.69
2019-03-26T07:41:30.171Z,6.64
2019-03-26T07:42:30.340Z,6.72
2019-03-26T07:43:30.508Z,6.69
2019-03-26T07:44:30.679Z,6.79
2019-03-26T07:45:30.857Z,6.82
2019-03-26T07:46:31.021Z,6.87
2019-03-26T07:47:31.187Z,6.82
2019-03-26T07:48:31.356Z,6.79
2019-03-26T07:49:31.526Z,6.81
2019-03-26T07:50:31.696Z,7.00
2019-03-26T07:51:31.864Z,6.87
2019-03-26T07:52:32.032Z,6.82
2019-03-26T07:53:32.206Z,6.84
2019-03-26T07:54:32.742Z,6.97
2019-03-26T07:55:32.541Z,7.06
2019-03-26T07:56:32.711Z,6.97
2019-03-26T07:57:32.878Z,7.07
2019-03-26T07:58:33.437Z,7.20
2019-03-26T07:59:33.217Z,7.18
2019-03-26T08:00:33.382Z,7.23
2019-03-26T08:01:33.552Z,7.14
2019-03-26T08:02:33.721Z,7.21
2019-03-26T08:03:33.892Z,7.32
2019-03-26T08:04:34.060Z,7.21
2019-03-26T08:05:34.238Z,7.28
2019-03-26T08:06:34.399Z,7.31
2019-03-26T08:07:34.570Z,7.33
2019-03-26T08:08:34.739Z,7.35
2019-03-26T08:09:35.061Z,7.42
2019-03-26T08:10:35.082Z,7.25
2019-03-26T08:11:35.248Z,7.24
2019-03-26T08:12:35.419Z,7.29
2019-03-26T08:13:35.616Z,7.29
2019-03-26T08:14:35.766Z,7.25
2019-03-26T08:15:35.936Z,7.25
2019-03-26T08:16:36.104Z,7.24
2019-03-26T08:17:36.284Z,7.31
2019-03-26T08:18:36.441Z,7.38
2019-03-26T08:19:36.609Z,7.24
2019-03-26T08:20:36.784Z,7.36
2019-03-26T08:21:36.951Z,7.42
2019-03-26T08:22:37.121Z,7.50
2019-03-26T08:23:38.412Z,7.50
2019-03-26T08:24:37.459Z,7.43
2019-03-26T08:25:37.627Z,7.40
2019-03-26T08:26:37.795Z,7.43
2019-03-26T08:27:37.963Z,7.54
2019-03-26T08:28:38.134Z,7.51
2019-03-26T08:29:38.303Z,7.53
2019-03-26T08:30:38.474Z,7.53
2019-03-26T08:31:38.644Z,7.58
2019-03-26T08:32:38.816Z,7.57
2019-03-26T08:33:38.981Z,7.53
2019-03-26T08:34:39.152Z,7.56
2019-03-26T08:35:39.323Z,7.57
2019-03-26T08:36:39.490Z,7.53
2019-03-26T08:37:39.659Z,7.60
2019-03-26T08:38:39.828Z,7.69
2019-03-26T08:39:39.998Z,7.63
2019-03-26T08:40:40.167Z,7.66
2019-03-26T08:41:40.342Z,7.61
2019-03-26T08:42:40.507Z,7.58
2019-03-26T08:43:41.093Z,7.54
2019-03-26T08:44:40.848Z,7.53
2019-03-26T08:45:41.014Z,7.50
2019-03-26T08:46:41.183Z,7.53
2019-03-26T08:47:41.352Z,7.42
2019-03-26T08:48:41.520Z,7.29
2019-03-26T08:49:41.690Z,7.36
2019-03-26T08:50:41.864Z,7.40
2019-03-26T08:51:42.031Z,7.31
2019-03-26T08:52:42.199Z,7.42
2019-03-26T08:53:42.367Z,7.39
2019-03-26T08:54:42.537Z,7.42
2019-03-26T08:55:42.705Z,7.47
2019-03-26T08:56:42.878Z,7.35
2019-03-26T08:57:43.045Z,7.36
2019-03-26T08:58:43.214Z,7.38
2019-03-26T08:59:43.388Z,7.43
2019-03-26T09:00:43.556Z,7.32
2019-03-26T09:01:43.726Z,7.43
2019-03-26T09:02:43.898Z,7.47
2019-03-26T09:03:44.065Z,7.40
2019-03-26T09:04:44.235Z,7.51
2019-03-26T09:05:44.403Z,7.50
2019-03-26T09:06:44.573Z,7.54
2019-03-26T09:07:44.742Z,7.73
2019-03-26T09:08:44.911Z,7.70
2019-03-26T09:09:45.082Z,7.66
2019-03-26T09:10:51.611Z,7.72
2019-03-26T09:11:45.419Z,7.67
2019-03-26T09:12:45.589Z,7.66
2019-03-26T09:13:45.754Z,7.66
2019-03-26T09:14:45.928Z,7.70
2019-03-26T09:15:46.100Z,7.67
2019-03-26T09:16:46.269Z,7.76
2019-03-26T09:17:46.441Z,7.66
2019-03-26T09:18:46.609Z,7.67
2019-03-26T09:19:46.779Z,7.61
2019-03-26T09:20:47.022Z,7.61
2019-03-26T09:21:47.119Z,7.60
2019-03-26T09:22:47.291Z,7.61
2019-03-26T09:23:47.460Z,7.70
2019-03-26T09:24:47.636Z,7.58
2019-03-26T09:25:47.800Z,7.60
2019-03-26T09:26:47.969Z,7.50
2019-03-26T09:27:48.138Z,7.53
2019-03-26T09:28:48.320Z,7.50
2019-03-26T09:29:48.478Z,7.40
2019-03-26T09:30:48.647Z,7.43
2019-03-26T09:31:48.817Z,7.31
2019-03-26T09:32:48.986Z,7.48
2019-03-26T09:33:49.155Z,7.48
2019-03-26T09:34:49.326Z,7.51
2019-03-26T09:35:49.499Z,7.42
2019-03-26T09:36:49.669Z,7.56
2019-03-26T09:37:49.838Z,7.61
2019-03-26T09:38:50.012Z,7.61
2019-03-26T09:39:50.177Z,7.69
2019-03-26T09:40:50.351Z,7.79
2019-03-26T09:41:50.517Z,7.76
2019-03-26T09:42:50.684Z,7.77
2019-03-26T09:43:50.853Z,7.97
2019-03-26T09:44:51.024Z,7.85
2019-03-26T09:45:51.195Z,7.85
2019-03-26T09:46:51.364Z,8.01
2019-03-26T09:47:51.533Z,8.00
2019-03-26T09:48:51.704Z,8.13
2019-03-26T09:49:51.876Z,8.27
2019-03-26T09:50:52.045Z,8.48
2019-03-26T09:51:52.214Z,8.61
2019-03-26T09:52:52.387Z,9.79
2019-03-26T09:53:52.556Z,11.17
2019-03-26T09:54:52.725Z,12.45
2019-03-26T09:55:52.894Z,13.23
2019-03-26T09:56:53.068Z,14.07
2019-03-26T09:57:53.238Z,14.68
2019-03-26T09:58:53.413Z,15.21
2019-03-26T09:59:53.579Z,15.25
2019-03-26T10:00:53.750Z,15.73
2019-03-26T10:01:53.926Z,16.12
2019-03-26T10:02:54.094Z,16.39
2019-03-26T10:03:54.272Z,16.33
2019-03-26T10:04:54.436Z,16.12
2019-03-26T10:05:54.607Z,16.28
2019-03-26T10:06:54.779Z,16.28
2019-03-26T10:07:54.952Z,16.08
2019-03-26T10:08:55.128Z,15.73
2019-03-26T10:09:55.298Z,15.44
2019-03-26T10:10:55.472Z,15.39
2019-03-26T10:11:55.645Z,15.76
2019-03-26T10:12:55.818Z,16.09
2019-03-26T10:13:55.993Z,16.32
2019-03-26T10:14:56.164Z,16.75
2019-03-26T10:15:56.341Z,16.84
2019-03-26T10:16:56.513Z,16.56
2019-03-26T10:17:56.683Z,16.29
2019-03-26T10:18:56.861Z,16.21
2019-03-26T10:19:57.036Z,16.39
2019-03-26T10:20:57.210Z,16.75
2019-03-26T10:21:57.384Z,16.91
2019-03-26T10:22:57.558Z,16.31
2019-03-26T10:23:57.735Z,15.83
2019-03-26T10:24:57.910Z,15.36
2019-03-26T10:25:58.085Z,15.75
2019-03-26T10:26:58.261Z,16.00
2019-03-26T10:27:58.436Z,16.61
2019-03-26T10:28:58.613Z,16.65
2019-03-26T10:29:58.789Z,16.72
2019-03-26T10:30:58.965Z,16.47
2019-03-26T10:31:59.142Z,16.41
2019-03-26T10:32:59.316Z,17.08
2019-03-26T10:33:59.493Z,17.67
2019-03-26T10:34:59.668Z,17.68
2019-03-26T10:35:59.848Z,16.99
2019-03-26T10:37:00.019Z,16.09
2019-03-26T10:38:00.195Z,15.79
2019-03-26T10:39:05.528Z,15.06
2019-03-26T10:40:00.549Z,14.51
2019-03-26T10:41:00.724Z,14.00
2019-03-26T10:42:00.899Z,13.59
2019-03-26T10:43:01.075Z,13.18
2019-03-26T10:44:01.256Z,12.80
2019-03-26T10:45:01.430Z,12.61
2019-03-26T10:46:01.605Z,12.46
2019-03-26T10:47:01.777Z,12.57
2019-03-26T10:48:01.955Z,12.65
2019-03-26T10:49:02.136Z,12.60
2019-03-26T10:50:02.317Z,12.31
2019-03-26T10:51:02.477Z,12.10
2019-03-26T10:52:02.654Z,12.00
2019-03-26T10:53:02.839Z,12.18
2019-03-26T10:54:03.002Z,12.06
2019-03-26T10:55:03.175Z,12.06
2019-03-26T10:56:03.349Z,11.83
2019-03-26T10:57:03.525Z,11.77
2019-03-26T10:58:03.703Z,11.65
2019-03-26T10:59:04.277Z,11.41
2019-03-26T11:00:04.046Z,11.29
2019-03-26T11:01:04.222Z,11.23
2019-03-26T11:02:04.401Z,11.29
2019-03-26T11:03:04.568Z,11.41
2019-03-26T11:04:07.565Z,11.60
2019-03-26T11:05:04.915Z,11.54
2019-03-26T11:06:05.089Z,11.60
2019-03-26T11:07:05.269Z,11.70
2019-03-26T11:08:05.434Z,11.62
2019-03-26T11:09:18.857Z,11.54
2019-03-26T11:10:05.783Z,11.32
2019-03-26T11:11:05.955Z,11.11
2019-03-26T11:12:06.130Z,10.97
2019-03-26T11:13:06.333Z,10.78
2019-03-26T11:14:06.475Z,10.76
2019-03-26T11:15:06.649Z,10.61
2019-03-26T11:16:06.819Z,10.74
2019-03-26T11:17:06.992Z,10.75
2019-03-26T11:18:07.164Z,11.17
2019-03-26T11:19:07.340Z,12.25
2019-03-26T11:20:07.511Z,13.30
2019-03-26T11:21:07.681Z,14.50
2019-03-26T11:22:07.854Z,15.58
2019-03-26T11:23:08.025Z,16.00
2019-03-26T11:24:08.200Z,16.86
2019-03-26T11:25:08.371Z,16.94
2019-03-26T11:26:08.543Z,17.22
2019-03-26T11:27:08.719Z,17.15
2019-03-26T11:28:08.894Z,17.04
2019-03-26T11:29:09.067Z,16.24
2019-03-26T11:30:09.244Z,15.52
2019-03-26T11:31:09.416Z,15.10
2019-03-26T11:32:09.589Z,14.62
2019-03-26T11:33:09.763Z,13.83
2019-03-26T11:34:09.936Z,13.25
2019-03-26T11:35:10.114Z,12.87
2019-03-26T11:36:10.283Z,12.43
2019-03-26T11:37:10.455Z,12.13
2019-03-26T11:38:10.639Z,11.78
2019-03-26T11:39:10.808Z,11.73
2019-03-26T11:40:10.984Z,11.65
2019-03-26T11:41:11.162Z,11.52
2019-03-26T11:42:11.335Z,11.54
2019-03-26T11:43:11.511Z,11.52
2019-03-26T11:44:11.682Z,11.70
2019-03-26T11:45:11.859Z,11.73
2019-03-26T11:46:12.033Z,11.83
2019-03-26T11:47:12.210Z,11.95
2019-03-26T11:48:12.382Z,11.95
2019-03-26T11:49:12.557Z,11.97
2019-03-26T11:50:12.728Z,11.88
2019-03-26T11:51:12.904Z,11.84
2019-03-26T11:52:13.077Z,11.81
2019-03-26T11:53:13.251Z,11.73
2019-03-26T11:54:13.424Z,11.80
2019-03-26T11:55:13.596Z,11.68
2019-03-26T11:56:13.768Z,11.47
2019-03-26T11:57:13.941Z,11.35
2019-03-26T11:58:14.117Z,11.23
2019-03-26T11:59:14.287Z,11.05
2019-03-26T12:00:14.459Z,11.05
2019-03-26T12:01:14.631Z,11.00
2019-03-26T12:02:14.918Z,10.94
2019-03-26T12:03:14.977Z,11.10
2019-03-26T12:04:15.149Z,11.27
2019-03-26T12:05:15.322Z,11.26
2019-03-26T12:06:15.494Z,11.52
2019-03-26T12:07:15.668Z,11.57
2019-03-26T12:08:15.839Z,11.41
2019-03-26T12:09:16.012Z,11.57
2019-03-26T12:10:16.185Z,11.52
2019-03-26T12:11:16.357Z,11.66
2019-03-26T12:12:16.531Z,11.72
2019-03-26T12:13:16.706Z,11.88
2019-03-26T12:14:16.876Z,11.84
2019-03-26T12:15:17.047Z,11.80
2019-03-26T12:16:17.229Z,11.72
2019-03-26T12:17:17.400Z,11.62
2019-03-26T12:18:17.574Z,11.72
2019-03-26T12:19:17.747Z,11.57
2019-03-26T12:20:17.924Z,11.60
2019-03-26T12:21:18.094Z,11.59
2019-03-26T12:22:18.267Z,11.54
2019-03-26T12:23:18.443Z,11.40
2019-03-26T12:24:18.613Z,11.32
2019-03-26T12:25:18.790Z,11.22
2019-03-26T12:26:18.959Z,11.05
2019-03-26T12:27:19.134Z,10.84
2019-03-26T12:28:19.310Z,10.75
2019-03-26T12:29:19.480Z,10.57
2019-03-26T12:30:19.651Z,10.40
2019-03-26T12:31:19.823Z,10.35
2019-03-26T12:32:19.996Z,10.33
2019-03-26T12:33:20.169Z,10.23
2019-03-26T12:34:20.343Z,10.20
2019-03-26T12:35:20.514Z,10.23
2019-03-26T12:36:20.686Z,10.12
2019-03-26T12:37:20.861Z,9.94
2019-03-26T12:38:21.030Z,9.89
2019-03-26T12:39:21.205Z,9.87
2019-03-26T12:40:21.375Z,9.91
2019-03-26T12:41:21.547Z,9.84
2019-03-26T12:42:21.718Z,9.83
2019-03-26T12:43:21.889Z,9.84
2019-03-26T12:44:22.063Z,9.92
2019-03-26T12:45:22.236Z,9.86
2019-03-26T12:46:22.405Z,9.77
2019-03-26T12:47:22.578Z,9.84
2019-03-26T12:48:22.749Z,9.74
2019-03-26T12:49:22.921Z,9.69
2019-03-26T12:50:23.091Z,9.56
2019-03-26T12:51:23.266Z,9.58
2019-03-26T12:52:23.437Z,9.58
2019-03-26T12:53:23.608Z,9.61
2019-03-26T12:54:23.848Z,9.65
2019-03-26T12:55:23.967Z,9.77
2019-03-26T12:56:24.139Z,9.77
2019-03-26T12:57:24.379Z,9.72
2019-03-26T12:58:31.568Z,9.69
2019-03-26T12:59:26.657Z,9.79
2019-03-26T13:00:24.855Z,9.84
2019-03-26T13:01:25.021Z,9.82
2019-03-26T13:02:25.194Z,9.83
2019-03-26T13:03:25.365Z,9.74
2019-03-26T13:04:25.534Z,9.73
2019-03-26T13:05:25.704Z,9.80
2019-03-26T13:06:25.876Z,9.83
2019-03-26T13:07:26.046Z,9.91
2019-03-26T13:08:26.217Z,9.77
2019-03-26T13:09:26.388Z,9.73
2019-03-26T13:10:26.559Z,9.72
2019-03-26T13:11:26.729Z,9.64
2019-03-26T13:12:26.901Z,9.74
2019-03-26T13:13:27.072Z,9.73
2019-03-26T13:14:27.241Z,9.77
2019-03-26T13:15:27.413Z,9.73
2019-03-26T13:16:27.585Z,9.74
2019-03-26T13:17:27.756Z,9.66
2019-03-26T13:18:27.932Z,9.72
2019-03-26T13:19:28.097Z,9.66
2019-03-26T13:20:28.268Z,9.68
2019-03-26T13:21:28.445Z,9.65
2019-03-26T13:22:28.616Z,9.68
2019-03-26T13:23:28.786Z,9.69
2019-03-26T13:24:28.957Z,9.76
2019-03-26T13:25:29.129Z,9.73
2019-03-26T13:26:29.299Z,9.65
2019-03-26T13:27:29.471Z,9.73
2019-03-26T13:28:29.643Z,9.86
2019-03-26T13:29:29.813Z,9.77
2019-03-26T13:30:29.988Z,9.87
2019-03-26T13:31:30.156Z,9.77
2019-03-26T13:32:30.325Z,9.69
2019-03-26T13:33:30.497Z,9.64
2019-03-26T13:34:30.667Z,9.64
2019-03-26T13:35:30.837Z,9.51
2019-03-26T13:36:31.008Z,9.56
2019-03-26T13:37:31.181Z,9.55
2019-03-26T13:38:31.354Z,9.55
2019-03-26T13:39:31.527Z,9.66
2019-03-26T13:40:31.697Z,9.64
2019-03-26T13:41:31.869Z,9.77
2019-03-26T13:42:32.037Z,9.79
2019-03-26T13:43:32.208Z,9.98
2019-03-26T13:44:32.380Z,10.12
2019-03-26T13:45:32.928Z,10.17
2019-03-26T13:46:32.723Z,10.16
2019-03-26T13:47:32.892Z,10.20
2019-03-26T13:48:33.065Z,10.25
2019-03-26T13:49:33.236Z,10.53
2019-03-26T13:50:33.407Z,10.48
2019-03-26T13:51:33.579Z,10.53
2019-03-26T13:52:33.749Z,10.49
2019-03-26T13:53:33.921Z,10.38
2019-03-26T13:54:34.092Z,10.25
2019-03-26T13:55:34.265Z,10.17
2019-03-26T13:56:34.433Z,10.01
2019-03-26T13:57:34.602Z,9.97
2019-03-26T13:58:34.774Z,9.80
2019-03-26T13:59:34.946Z,9.82
2019-03-26T14:00:35.117Z,9.82
2019-03-26T14:01:35.291Z,9.79
2019-03-26T14:02:35.460Z,9.76
2019-03-26T14:03:35.636Z,9.69
2019-03-26T14:04:35.802Z,9.82
2019-03-26T14:05:35.973Z,9.77
2019-03-26T14:06:36.143Z,9.72
2019-03-26T14:07:36.316Z,9.74
2019-03-26T14:08:36.491Z,9.64
2019-03-26T14:09:36.659Z,9.68
2019-03-26T14:10:41.097Z,9.82
2019-03-26T14:11:37.002Z,9.83
2019-03-26T14:12:37.175Z,10.01
2019-03-26T14:13:37.345Z,10.13
2019-03-26T14:14:37.517Z,10.12
2019-03-26T14:15:37.685Z,10.19
2019-03-26T14:16:37.858Z,10.16
2019-03-26T14:17:38.029Z,10.22
2019-03-26T14:18:38.197Z,10.20
2019-03-26T14:19:38.370Z,10.20
2019-03-26T14:20:38.543Z,10.25
2019-03-26T14:21:38.715Z,10.23
2019-03-26T14:22:38.885Z,10.31
2019-03-26T14:23:39.057Z,10.30
2019-03-26T14:24:39.228Z,10.20
2019-03-26T14:25:39.402Z,10.12
2019-03-26T14:26:39.570Z,9.95
2019-03-26T14:27:39.743Z,9.97
2019-03-26T14:28:39.914Z,9.91
2019-03-26T14:29:40.088Z,9.79
2019-03-26T14:30:40.254Z,9.76
2019-03-26T14:31:40.425Z,9.77
2019-03-26T14:32:40.594Z,9.77
2019-03-26T14:33:40.762Z,9.87
2019-03-26T14:34:40.932Z,9.84
2019-03-26T14:35:41.105Z,9.80
2019-03-26T14:36:41.285Z,9.87
2019-03-26T14:37:51.101Z,9.89
2019-03-26T14:38:41.618Z,9.91
2019-03-26T14:39:41.789Z,9.92
2019-03-26T14:40:53.970Z,9.92
2019-03-26T14:41:42.132Z,9.89
2019-03-26T14:42:42.303Z,9.97
2019-03-26T14:43:42.477Z,9.92
2019-03-26T14:44:42.649Z,10.05
2019-03-26T14:45:42.821Z,9.97
2019-03-26T14:46:42.991Z,9.94
2019-03-26T14:47:43.162Z,10.02
2019-03-26T14:48:43.335Z,10.07
2019-03-26T14:49:43.510Z,10.04
2019-03-26T14:50:43.676Z,10.05
2019-03-26T14:51:43.846Z,9.97
2019-03-26T14:52:44.020Z,9.91
2019-03-26T14:53:44.188Z,9.77
2019-03-26T14:54:44.361Z,9.74
2019-03-26T14:55:44.532Z,9.86
2019-03-26T14:56:44.699Z,9.74
2019-03-26T14:57:44.868Z,9.82
2019-03-26T14:58:45.039Z,9.87
2019-03-26T14:59:45.209Z,9.82
2019-03-26T15:00:45.383Z,9.68
2019-03-26T15:01:45.552Z,9.80
2019-03-26T15:02:45.724Z,9.84
2019-03-26T15:03:45.895Z,9.84
2019-03-26T15:04:46.063Z,9.94
2019-03-26T15:05:46.237Z,10.02
2019-03-26T15:06:46.404Z,10.01
2019-03-26T15:07:46.576Z,10.09
2019-03-26T15:08:46.746Z,10.04
2019-03-26T15:09:46.918Z,10.02
2019-03-26T15:10:47.086Z,10.05
2019-03-26T15:11:47.259Z,10.10
2019-03-26T15:12:47.430Z,10.12
2019-03-26T15:13:49.507Z,10.12
2019-03-26T15:14:47.775Z,10.07
2019-03-26T15:15:47.943Z,10.16
2019-03-26T15:16:48.113Z,10.20
2019-03-26T15:17:48.287Z,10.10
2019-03-26T15:18:48.457Z,10.07
2019-03-26T15:19:48.626Z,10.15
2019-03-26T15:20:48.797Z,10.10
2019-03-26T15:21:48.967Z,10.17
2019-03-26T15:22:49.136Z,10.12
2019-03-26T15:23:49.308Z,10.16
2019-03-26T15:24:49.478Z,10.20
2019-03-26T15:25:49.649Z,10.07
2019-03-26T15:26:49.821Z,10.15
2019-03-26T15:27:49.992Z,10.23
2019-03-26T15:28:50.163Z,10.26
2019-03-26T15:29:50.336Z,10.09
2019-03-26T15:30:50.507Z,10.10
2019-03-26T15:31:50.679Z,10.10
2019-03-26T15:32:50.850Z,10.02
2019-03-26T15:33:51.022Z,10.04
2019-03-26T15:34:51.197Z,10.04
2019-03-26T15:35:51.369Z,9.95
2019-03-26T15:36:51.542Z,9.87
2019-03-26T15:37:51.713Z,9.84
2019-03-26T15:38:51.888Z,9.82
2019-03-26T15:39:52.067Z,9.77
2019-03-26T15:40:52.228Z,9.76
2019-03-26T15:41:52.416Z,9.72
2019-03-26T15:42:52.568Z,9.68
2019-03-26T15:43:52.744Z,9.65
2019-03-26T15:44:52.912Z,9.55
2019-03-26T15:45:53.083Z,9.58
2019-03-26T15:46:53.252Z,9.58
2019-03-26T15:47:53.422Z,9.51
2019-03-26T15:48:53.594Z,9.51
2019-03-26T15:49:53.765Z,9.41
2019-03-26T15:50:53.936Z,9.32
2019-03-26T15:51:54.107Z,9.23
2019-03-26T15:52:54.280Z,9.21
2019-03-26T15:53:54.452Z,9.19
2019-03-26T15:54:54.620Z,9.10
2019-03-26T15:55:54.793Z,9.13
2019-03-26T15:56:54.963Z,8.99
2019-03-26T15:57:55.134Z,9.11
2019-03-26T15:58:55.305Z,9.18
2019-03-26T15:59:55.472Z,9.23
2019-03-26T16:00:55.647Z,9.32
2019-03-26T16:01:55.815Z,9.31
2019-03-26T16:02:55.987Z,9.32
2019-03-26T16:03:56.156Z,9.36
2019-03-26T16:04:56.325Z,9.47
2019-03-26T16:05:56.497Z,9.37
2019-03-26T16:06:56.667Z,9.58
2019-03-26T16:07:56.838Z,9.65
2019-03-26T16:08:57.022Z,9.62
2019-03-26T16:09:57.189Z,9.55
2019-03-26T16:10:57.358Z,9.68
2019-03-26T16:11:57.529Z,9.64
2019-03-26T16:12:57.701Z,9.72
2019-03-26T16:13:57.872Z,9.73
2019-03-26T16:14:58.041Z,9.72
2019-03-26T16:15:58.211Z,9.66
2019-03-26T16:16:58.383Z,9.74
2019-03-26T16:17:58.554Z,9.73
2019-03-26T16:18:58.724Z,9.65
2019-03-26T16:19:58.896Z,9.73
2019-03-26T16:20:59.069Z,9.73
2019-03-26T16:21:59.238Z,9.65
2019-03-26T16:22:59.408Z,9.64
2019-03-26T16:23:59.579Z,9.74
2019-03-26T16:24:59.751Z,9.77
2019-03-26T16:25:59.921Z,9.56
2019-03-26T16:27:00.091Z,9.72
2019-03-26T16:28:00.264Z,9.73
2019-03-26T16:29:00.431Z,9.55
2019-03-26T16:30:00.603Z,9.51
2019-03-26T16:31:00.771Z,9.58
2019-03-26T16:32:00.943Z,9.50
2019-03-26T16:33:01.118Z,9.50
2019-03-26T16:34:01.282Z,9.41
2019-03-26T16:35:01.457Z,9.44
2019-03-26T16:36:01.622Z,9.47
2019-03-26T16:37:01.792Z,9.34
2019-03-26T16:38:01.964Z,9.37
2019-03-26T16:39:02.149Z,9.36
2019-03-26T16:40:02.298Z,9.39
2019-03-26T16:41:02.468Z,9.37
2019-03-26T16:42:02.636Z,9.34
2019-03-26T16:43:02.805Z,9.28
2019-03-26T16:44:02.977Z,9.21
2019-03-26T16:45:03.147Z,9.21
2019-03-26T16:46:03.318Z,9.14
2019-03-26T16:47:03.489Z,9.14
2019-03-26T16:48:03.663Z,8.92
2019-03-26T16:49:03.828Z,8.92
2019-03-26T16:50:04.000Z,9.02
2019-03-26T16:51:04.179Z,9.03
2019-03-26T16:52:04.341Z,9.03
2019-03-26T16:53:04.509Z,9.10
2019-03-26T16:54:04.685Z,9.14
2019-03-26T16:55:04.849Z,9.13
2019-03-26T16:56:05.021Z,9.06
2019-03-26T16:57:05.190Z,9.13
2019-03-26T16:58:05.363Z,9.13
2019-03-26T16:59:05.532Z,9.11
2019-03-26T17:00:05.703Z,9.10
2019-03-26T17:01:05.874Z,9.22
2019-03-26T17:02:06.041Z,9.18
2019-03-26T17:03:06.214Z,9.10
2019-03-26T17:04:06.385Z,8.95
2019-03-26T17:05:06.558Z,8.81
2019-03-26T17:06:06.728Z,8.85
2019-03-26T17:07:06.897Z,8.84
2019-03-26T17:08:07.071Z,8.92
2019-03-26T17:09:07.240Z,8.97
2019-03-26T17:10:07.411Z,8.92
2019-03-26T17:11:07.581Z,8.94
2019-03-26T17:12:07.754Z,8.85
2019-03-26T17:13:07.925Z,8.92
2019-03-26T17:14:08.094Z,8.87
2019-03-26T17:15:08.268Z,8.79
2019-03-26T17:16:08.437Z,8.71
2019-03-26T17:17:08.607Z,8.69
2019-03-26T17:18:08.780Z,8.61
2019-03-26T17:19:08.952Z,8.48
2019-03-26T17:20:09.120Z,8.49
2019-03-26T17:21:09.293Z,8.44
2019-03-26T17:22:09.463Z,8.38
2019-03-26T17:23:09.634Z,8.30
2019-03-26T17:24:09.862Z,8.27
2019-03-26T17:25:09.971Z,8.26
2019-03-26T17:26:10.141Z,8.23
2019-03-26T17:27:10.338Z,8.16
2019-03-26T17:28:10.483Z,8.24
2019-03-26T17:29:10.652Z,8.27
2019-03-26T17:30:10.823Z,8.18
2019-03-26T17:31:10.994Z,8.15
2019-03-26T17:32:11.165Z,8.19
2019-03-26T17:33:11.337Z,8.09
2019-03-26T17:34:11.503Z,8.05
2019-03-26T17:35:11.673Z,8.08
2019-03-26T17:36:11.839Z,8.06
2019-03-26T17:37:12.008Z,8.10
2019-03-26T17:38:12.180Z,8.08
2019-03-26T17:39:12.351Z,8.09
2019-03-26T17:40:12.520Z,8.13
2019-03-26T17:41:12.728Z,8.23
2019-03-26T17:42:17.531Z,8.13
2019-03-26T17:43:13.026Z,8.16
2019-03-26T17:44:13.196Z,8.13
2019-03-26T17:45:13.368Z,8.12
2019-03-26T17:46:13.541Z,8.09
2019-03-26T17:47:13.709Z,8.10
2019-03-26T17:48:13.878Z,8.18
2019-03-26T17:49:14.084Z,8.08
2019-03-26T17:50:14.236Z,8.12
2019-03-26T17:51:14.404Z,8.06
2019-03-26T17:52:14.595Z,8.08
2019-03-26T17:53:14.776Z,8.12
2019-03-26T17:54:14.946Z,8.26
2019-03-26T17:55:15.126Z,8.13
2019-03-26T17:56:15.286Z,8.08
2019-03-26T17:57:15.458Z,8.18
2019-03-26T17:58:15.623Z,8.06
2019-03-26T17:59:15.800Z,8.12
2019-03-26T18:00:15.967Z,8.12
2019-03-26T18:01:16.136Z,8.13
2019-03-26T18:02:16.304Z,8.23
2019-03-26T18:03:26.345Z,8.13
2019-03-26T18:04:16.648Z,8.18
2019-03-26T18:05:16.818Z,8.10
2019-03-26T18:06:16.987Z,8.15
2019-03-26T18:07:17.162Z,8.08
2019-03-26T18:08:17.330Z,8.06
2019-03-26T18:09:17.503Z,8.05
2019-03-26T18:10:17.679Z,7.98
2019-03-26T18:11:17.844Z,7.93
2019-03-26T18:12:30.380Z,7.98
2019-03-26T18:13:18.233Z,7.95